| time (UTC) | temp C | wind direction | speed KPH | gust KPH | rain 1hr cm | rain 24hr cm | rain mn cm | humidity % | barometer mb |
| 20260509203507 | 18 | 265 | 4.8 | 9.7 | 0.00 | 0.00 | 0.00 | 59 | 1019.8 |
| 20260509203028 | 18 | 259 | 3.2 | 12.9 | 0.00 | 0.00 | 0.00 | 61 | 1019.8 |
| 20260509202508 | 18 | 290 | 8.0 | 12.9 | 0.00 | 0.00 | 0.00 | 58 | 1019.8 |
| 20260509202012 | 18 | 265 | 4.8 | 11.3 | 0.00 | 0.00 | 0.00 | 60 | 1019.9 |
| 20260509201522 | 18 | 288 | 4.8 | 11.3 | 0.00 | 0.00 | 0.00 | 59 | 1019.9 |
| 20260509201013 | 18 | 275 | 4.8 | 11.3 | 0.00 | 0.00 | 0.00 | 58 | 1020.0 |
| 20260509200506 | 17 | 273 | 1.6 | 9.7 | 0.00 | 0.00 | 0.00 | 62 | 1020.1 |
| 20260509200008 | 17 | 271 | 3.2 | 8.0 | 0.00 | 0.00 | 0.00 | 62 | 1020.2 |
| 20260509195505 | 17 | 273 | 3.2 | 8.0 | 0.00 | 0.00 | 0.00 | 62 | 1020.3 |
| 20260509195004 | 17 | 275 | 3.2 | 9.7 | 0.00 | 0.00 | 0.00 | 62 | 1020.2 |
| 20260509194510 | 16 | 285 | 3.2 | 9.7 | 0.00 | 0.00 | 0.00 | 64 | 1020.4 |
| 20260509194006 | 17 | 281 | 3.2 | 9.7 | 0.00 | 0.00 | 0.00 | 63 | 1020.4 |
| 20260509193505 | 17 | 287 | 3.2 | 8.0 | 0.00 | 0.00 | 0.00 | 62 | 1020.6 |
| 20260509193024 | 17 | 269 | 3.2 | 6.4 | 0.00 | 0.00 | 0.00 | 63 | 1020.7 |
| 20260509192506 | 17 | 289 | 3.2 | 11.3 | 0.00 | 0.00 | 0.00 | 63 | 1020.8 |
| 20260509192007 | 16 | 311 | 1.6 | 11.3 | 0.00 | 0.00 | 0.00 | 65 | 1020.7 |
| 20260509191532 | 16 | 257 | 3.2 | 12.9 | 0.00 | 0.00 | 0.00 | 64 | 1020.8 |
| 20260509191009 | 16 | 281 | 4.8 | 12.9 | 0.00 | 0.00 | 0.00 | 65 | 1020.9 |
| 20260509190512 | 16 | 265 | 4.8 | 12.9 | 0.00 | 0.00 | 0.00 | 63 | 1020.9 |
| 20260509190029 | 16 | 296 | 4.8 | 9.7 | 0.00 | 0.00 | 0.00 | 64 | 1020.9 |
| 20260509185508 | 16 | 250 | 3.2 | 9.7 | 0.00 | 0.00 | 0.00 | 66 | 1020.9 |
| 20260509185006 | 16 | 263 | 3.2 | 9.7 | 0.00 | 0.00 | 0.00 | 64 | 1021.0 |
| 20260509184527 | 16 | 201 | 4.8 | 12.9 | 0.00 | 0.00 | 0.00 | 64 | 1021.1 |
| 20260509184008 | 16 | 286 | 4.8 | 12.9 | 0.00 | 0.00 | 0.00 | 65 | 1021.2 |
| 20260509183504 | 16 | 339 | 3.2 | 8.0 | 0.00 | 0.00 | 0.00 | 66 | 1021.1 |
| 20260509183012 | 16 | 267 | 3.2 | 11.3 | 0.00 | 0.00 | 0.00 | 67 | 1021.2 |
| 20260509182509 | 16 | 283 | 4.8 | 11.3 | 0.00 | 0.00 | 0.00 | 66 | 1021.2 |
| 20260509182007 | 16 | 275 | 4.8 | 9.7 | 0.00 | 0.00 | 0.00 | 68 | 1021.2 |
| 20260509181517 | 16 | 275 | 3.2 | 9.7 | 0.00 | 0.00 | 0.00 | 70 | 1021.1 |
| 20260509181008 | 15 | 271 | 4.8 | 9.7 | 0.00 | 0.00 | 0.00 | 69 | 1021.1 |
| 20260509180508 | 15 | 275 | 3.2 | 9.7 | 0.00 | 0.00 | 0.00 | 70 | 1021.2 |
| 20260509180022 | 15 | 292 | 3.2 | 9.7 | 0.00 | 0.00 | 0.00 | 70 | 1021.2 |
| 20260509175513 | 15 | 238 | 3.2 | 9.7 | 0.00 | 0.00 | 0.00 | 72 | 1021.2 |
| 20260509175010 | 15 | 298 | 3.2 | 9.7 | 0.00 | 0.00 | 0.00 | 72 | 1021.2 |
| 20260509174526 | 15 | 323 | 3.2 | 9.7 | 0.00 | 0.00 | 0.00 | 74 | 1021.3 |
| 20260509174011 | 15 | 279 | 4.8 | 9.7 | 0.00 | 0.00 | 0.00 | 73 | 1021.5 |
| 20260509173508 | 15 | 286 | 3.2 | 9.7 | 0.00 | 0.00 | 0.00 | 74 | 1021.4 |
| 20260509173009 | 15 | 273 | 4.8 | 9.7 | 0.00 | 0.00 | 0.00 | 74 | 1021.5 |
| 20260509172506 | 14 | 318 | 4.8 | 9.7 | 0.00 | 0.00 | 0.00 | 76 | 1021.6 |
| 20260509172006 | 14 | 12 | 4.8 | 9.7 | 0.00 | 0.00 | 0.00 | 74 | 1021.6 |
| 20260509171515 | 14 | 337 | 3.2 | 11.3 | 0.00 | 0.00 | 0.00 | 75 | 1021.6 |
| 20260509171007 | 14 | 252 | 3.2 | 11.3 | 0.00 | 0.00 | 0.00 | 76 | 1021.6 |
| 20260509170508 | 14 | 279 | 1.6 | 11.3 | 0.00 | 0.00 | 0.00 | 78 | 1021.6 |
| 20260509170023 | 13 | 281 | 3.2 | 9.7 | 0.00 | 0.00 | 0.00 | 77 | 1021.6 |
| 20260509165508 | 13 | 9 | 3.2 | 9.7 | 0.00 | 0.00 | 0.00 | 79 | 1021.6 |
| 20260509165007 | 13 | 281 | 3.2 | 9.7 | 0.00 | 0.00 | 0.00 | 79 | 1021.7 |
| 20260509164525 | 13 | 290 | 3.2 | 9.7 | 0.00 | 0.00 | 0.00 | 79 | 1021.8 |
| 20260509164011 | 13 | 291 | 4.8 | 8.0 | 0.00 | 0.00 | 0.00 | 79 | 1021.9 |
| 20260509163510 | 13 | 297 | 4.8 | 8.0 | 0.00 | 0.00 | 0.00 | 79 | 1021.8 |
| 20260509163034 | 13 | 302 | 4.8 | 8.0 | 0.00 | 0.00 | 0.00 | 79 | 1021.8 |
| 20260509162515 | 13 | 284 | 3.2 | 6.4 | 0.00 | 0.00 | 0.00 | 79 | 1021.8 |
| 20260509162007 | 13 | 292 | 4.8 | 6.4 | 0.00 | 0.00 | 0.00 | 79 | 1021.9 |
| 20260509161514 | 13 | 279 | 3.2 | 6.4 | 0.00 | 0.00 | 0.00 | 80 | 1021.9 |
| 20260509161007 | 12 | 255 | 1.6 | 6.4 | 0.00 | 0.00 | 0.00 | 82 | 1021.9 |
| 20260509160507 | 12 | 323 | 3.2 | 6.4 | 0.00 | 0.00 | 0.00 | 81 | 1022.0 |
| 20260509160016 | 12 | 268 | 3.2 | 6.4 | 0.00 | 0.00 | 0.00 | 82 | 1022.0 |
| 20260509155507 | 12 | 272 | 3.2 | 6.4 | 0.00 | 0.00 | 0.00 | 82 | 1022.1 |
| 20260509155010 | 12 | 284 | 1.6 | 9.7 | 0.00 | 0.00 | 0.00 | 82 | 1022.2 |
| 20260509154524 | 12 | 286 | 3.2 | 9.7 | 0.00 | 0.00 | 0.00 | 81 | 1022.2 |
| 20260509154008 | 12 | 277 | 1.6 | 3.2 | 0.00 | 0.00 | 0.00 | 81 | 1022.2 |
| 20260509153512 | 12 | 248 | 1.6 | 3.2 | 0.00 | 0.00 | 0.00 | 80 | 1022.2 |
| 20260509153031 | 12 | 331 | 1.6 | 4.8 | 0.00 | 0.00 | 0.00 | 81 | 1022.2 |
| 20260509152510 | 12 | 119 | 1.6 | 4.8 | 0.00 | 0.00 | 0.00 | 82 | 1022.2 |
| 20260509152011 | 12 | 110 | 1.6 | 6.4 | 0.00 | 0.00 | 0.00 | 82 | 1022.2 |
| 20260509151526 | 12 | 129 | 1.6 | 6.4 | 0.00 | 0.00 | 0.00 | 82 | 1022.2 |
| 20260509151006 | 12 | 91 | 1.6 | 4.8 | 0.00 | 0.00 | 0.00 | 82 | 1022.2 |
| 20260509150509 | 12 | 94 | 3.2 | 4.8 | 0.00 | 0.00 | 0.00 | 83 | 1022.3 |
| 20260509150018 | 11 | 91 | 0.0 | 4.8 | 0.00 | 0.00 | 0.00 | 83 | 1022.4 |
| 20260509145508 | 11 | 98 | 0.0 | 4.8 | 0.00 | 0.00 | 0.00 | 85 | 1022.3 |
| 20260509145007 | 11 | 101 | 1.6 | 4.8 | 0.00 | 0.00 | 0.00 | 85 | 1022.5 |
| 20260509144524 | 11 | 25 | 1.6 | 4.8 | 0.00 | 0.00 | 0.00 | 85 | 1022.5 |
| 20260509144012 | 11 | 34 | 3.2 | 4.8 | 0.00 | 0.00 | 0.00 | 85 | 1022.4 |
| 20260509143509 | 11 | 103 | 0.0 | 1.6 | 0.00 | 0.00 | 0.00 | 86 | 1022.3 |
| 20260509143022 | 11 | 108 | 0.0 | 3.2 | 0.00 | 0.00 | 0.00 | 87 | 1022.3 |
| 20260509142510 | 11 | 103 | 1.6 | 3.2 | 0.00 | 0.00 | 0.00 | 88 | 1022.4 |
| 20260509142011 | 10 | 101 | 0.0 | 3.2 | 0.00 | 0.00 | 0.00 | 89 | 1022.6 |
| 20260509141528 | 10 | 71 | 0.0 | 0.0 | 0.00 | 0.00 | 0.00 | 90 | 1022.5 |
| 20260509141010 | 10 | 71 | 0.0 | 0.0 | 0.00 | 0.00 | 0.00 | 90 | 1022.4 |
| 20260509140514 | 10 | 71 | 0.0 | 0.0 | 0.00 | 0.00 | 0.00 | 91 | 1022.5 |
| 20260509140027 | 9 | 71 | 0.0 | 0.0 | 0.00 | 0.00 | 0.00 | 91 | 1022.4 |
| 20260509135508 | 8 | 71 | 0.0 | 0.0 | 0.00 | 0.00 | 0.00 | 91 | 1022.4 |
| 20260509135009 | 8 | 71 | 0.0 | 0.0 | 0.00 | 0.00 | 0.00 | 91 | 1022.5 |
| 20260509134519 | 8 | 71 | 0.0 | 0.0 | 0.00 | 0.00 | 0.00 | 91 | 1022.6 |
| 20260509134009 | 8 | 71 | 0.0 | 0.0 | 0.00 | 0.00 | 0.00 | 91 | 1022.6 |
| 20260509133508 | 8 | 71 | 0.0 | 0.0 | 0.00 | 0.00 | 0.00 | 91 | 1022.6 |
| 20260509133003 | 7 | 71 | 0.0 | 0.0 | 0.00 | 0.00 | 0.00 | 91 | 1022.6 |
| 20260509132505 | 7 | 71 | 0.0 | 0.0 | 0.00 | 0.00 | 0.00 | 91 | 1022.6 |
| 20260509132004 | 7 | 71 | 0.0 | 0.0 | 0.00 | 0.00 | 0.00 | 91 | 1022.7 |
| 20260509131511 | 7 | 71 | 0.0 | 0.0 | 0.00 | 0.00 | 0.00 | 91 | 1022.7 |
| 20260509131004 | 7 | 71 | 0.0 | 0.0 | 0.00 | 0.00 | 0.00 | 91 | 1022.7 |
| 20260509130504 | 7 | 71 | 0.0 | 0.0 | 0.00 | 0.00 | 0.00 | 91 | 1022.7 |
| 20260509130027 | 7 | 71 | 0.0 | 0.0 | 0.00 | 0.00 | 0.00 | 91 | 1022.5 |
| 20260509125504 | 7 | 128 | 0.0 | 0.0 | 0.00 | 0.00 | 0.00 | 91 | 1022.5 |
| 20260509125008 | 7 | 130 | 0.0 | 0.0 | 0.00 | 0.00 | 0.00 | 91 | 1022.6 |
| 20260509124520 | 7 | 130 | 0.0 | 0.0 | 0.00 | 0.00 | 0.00 | 91 | 1022.5 |
| 20260509124009 | 7 | 173 | 0.0 | 0.0 | 0.00 | 0.00 | 0.00 | 91 | 1022.5 |
| 20260509123507 | 7 | 173 | 0.0 | 0.0 | 0.00 | 0.00 | 0.00 | 91 | 1022.5 |
| 20260509123021 | 7 | 173 | 0.0 | 0.0 | 0.00 | 0.00 | 0.00 | 90 | 1022.5 |
| 20260509122506 | 7 | 173 | 0.0 | 0.0 | 0.00 | 0.00 | 0.00 | 91 | 1022.6 |
| 20260509122010 | 8 | 173 | 0.0 | 0.0 | 0.00 | 0.00 | 0.00 | 91 | 1022.6 |
| 20260509121510 | 7 | 173 | 0.0 | 0.0 | 0.00 | 0.00 | 0.00 | 90 | 1022.6 |
| 20260509121004 | 7 | 173 | 0.0 | 0.0 | 0.00 | 0.00 | 0.00 | 90 | 1022.7 |
| 20260509120505 | 8 | 173 | 0.0 | 0.0 | 0.00 | 0.00 | 0.00 | 90 | 1022.6 |
| 20260509120013 | 8 | 173 | 0.0 | 0.0 | 0.00 | 0.00 | 0.00 | 90 | 1022.7 |
| 20260509115507 | 8 | 173 | 0.0 | 0.0 | 0.00 | 0.00 | 0.00 | 90 | 1022.6 |
| 20260509115005 | 8 | 173 | 0.0 | 0.0 | 0.00 | 0.00 | 0.00 | 89 | 1022.6 |
| 20260509114516 | 8 | 173 | 0.0 | 0.0 | 0.00 | 0.00 | 0.00 | 89 | 1022.6 |
| 20260509114007 | 8 | 173 | 0.0 | 0.0 | 0.00 | 0.00 | 0.00 | 89 | 1022.6 |
| 20260509113507 | 8 | 173 | 0.0 | 0.0 | 0.00 | 0.00 | 0.00 | 89 | 1022.6 |
| 20260509113017 | 8 | 173 | 0.0 | 0.0 | 0.00 | 0.00 | 0.00 | 89 | 1022.5 |
| 20260509112506 | 8 | 173 | 0.0 | 0.0 | 0.00 | 0.00 | 0.00 | 89 | 1022.6 |
| 20260509112006 | 8 | 173 | 0.0 | 0.0 | 0.00 | 0.00 | 0.00 | 89 | 1022.7 |
| 20260509111526 | 8 | 173 | 0.0 | 0.0 | 0.00 | 0.00 | 0.00 | 89 | 1022.7 |
| 20260509111014 | 8 | 173 | 0.0 | 0.0 | 0.00 | 0.00 | 0.00 | 89 | 1022.7 |
| 20260509110512 | 8 | 173 | 0.0 | 0.0 | 0.00 | 0.00 | 0.00 | 89 | 1022.7 |
| 20260509110007 | 9 | 173 | 0.0 | 0.0 | 0.00 | 0.00 | 0.00 | 89 | 1022.7 |
| 20260509105503 | 9 | 173 | 0.0 | 0.0 | 0.00 | 0.00 | 0.00 | 88 | 1022.7 |
| 20260509105003 | 9 | 173 | 0.0 | 0.0 | 0.00 | 0.00 | 0.00 | 88 | 1022.8 |
| 20260509104511 | 9 | 173 | 0.0 | 0.0 | 0.00 | 0.00 | 0.00 | 88 | 1022.9 |
| 20260509104008 | 9 | 173 | 0.0 | 0.0 | 0.00 | 0.00 | 0.00 | 88 | 1022.9 |
| 20260509103506 | 10 | 173 | 0.0 | 0.0 | 0.00 | 0.00 | 0.00 | 88 | 1022.9 |
| 20260509103019 | 10 | 173 | 0.0 | 0.0 | 0.00 | 0.00 | 0.00 | 88 | 1023.0 |
| 20260509102509 | 10 | 173 | 0.0 | 0.0 | 0.00 | 0.00 | 0.00 | 87 | 1022.9 |
| 20260509102008 | 10 | 173 | 0.0 | 0.0 | 0.00 | 0.00 | 0.00 | 87 | 1022.9 |
| 20260509101531 | 10 | 173 | 0.0 | 0.0 | 0.00 | 0.00 | 0.00 | 86 | 1023.0 |
| 20260509101007 | 10 | 173 | 0.0 | 0.0 | 0.00 | 0.00 | 0.00 | 86 | 1022.9 |
| 20260509100508 | 10 | 173 | 0.0 | 0.0 | 0.00 | 0.00 | 0.00 | 86 | 1023.0 |
| 20260509100031 | 10 | 173 | 0.0 | 0.0 | 0.00 | 0.00 | 0.00 | 86 | 1023.0 |
| 20260509095508 | 10 | 173 | 0.0 | 0.0 | 0.00 | 0.00 | 0.00 | 85 | 1023.1 |
| 20260509095007 | 11 | 173 | 0.0 | 0.0 | 0.00 | 0.00 | 0.00 | 85 | 1023.2 |
| 20260509094528 | 11 | 173 | 0.0 | 0.0 | 0.00 | 0.00 | 0.00 | 85 | 1023.2 |
| 20260509094004 | 11 | 173 | 0.0 | 0.0 | 0.00 | 0.00 | 0.00 | 85 | 1023.2 |
| 20260509093508 | 11 | 173 | 0.0 | 0.0 | 0.00 | 0.00 | 0.00 | 85 | 1023.2 |
| 20260509093014 | 11 | 150 | 0.0 | 0.0 | 0.00 | 0.00 | 0.00 | 85 | 1023.2 |
| 20260509092507 | 11 | 152 | 0.0 | 0.0 | 0.00 | 0.00 | 0.00 | 85 | 1023.3 |
| 20260509092010 | 11 | 153 | 0.0 | 0.0 | 0.00 | 0.00 | 0.00 | 85 | 1023.4 |
| 20260509091522 | 11 | 153 | 0.0 | 0.0 | 0.00 | 0.00 | 0.00 | 84 | 1023.4 |
| 20260509091008 | 11 | 138 | 0.0 | 0.0 | 0.00 | 0.00 | 0.00 | 85 | 1023.4 |
| 20260509090510 | 11 | 138 | 0.0 | 1.6 | 0.00 | 0.00 | 0.00 | 84 | 1023.4 |
| 20260509090035 | 11 | 205 | 0.0 | 6.4 | 0.00 | 0.00 | 0.00 | 84 | 1023.5 |
| 20260509085506 | 11 | 227 | 1.6 | 6.4 | 0.00 | 0.00 | 0.00 | 85 | 1023.4 |
| 20260509085010 | 11 | 189 | 0.0 | 3.2 | 0.00 | 0.00 | 0.00 | 85 | 1023.4 |
| 20260509084527 | 11 | 189 | 1.6 | 3.2 | 0.00 | 0.00 | 0.00 | 84 | 1023.4 |
| 20260509084008 | 11 | 208 | 0.0 | 3.2 | 0.00 | 0.00 | 0.00 | 84 | 1023.4 |
| 20260509083509 | 11 | 172 | 0.0 | 3.2 | 0.00 | 0.00 | 0.00 | 84 | 1023.5 |
| 20260509083044 | 11 | 172 | 0.0 | 3.2 | 0.00 | 0.00 | 0.00 | 84 | 1023.4 |
| 20260509082509 | 11 | 172 | 0.0 | 3.2 | 0.00 | 0.00 | 0.00 | 85 | 1023.4 |
| 20260509082006 | 11 | 186 | 0.0 | 3.2 | 0.00 | 0.00 | 0.00 | 84 | 1023.4 |
| 20260509081518 | 11 | 186 | 0.0 | 3.2 | 0.00 | 0.00 | 0.00 | 84 | 1023.3 |
| 20260509081006 | 11 | 186 | 0.0 | 3.2 | 0.00 | 0.00 | 0.00 | 84 | 1023.3 |
| 20260509080510 | 11 | 186 | 1.6 | 3.2 | 0.00 | 0.00 | 0.00 | 84 | 1023.3 |
| 20260509080025 | 11 | 220 | 0.0 | 3.2 | 0.00 | 0.00 | 0.00 | 84 | 1023.3 |
| 20260509075507 | 11 | 208 | 0.0 | 3.2 | 0.00 | 0.00 | 0.00 | 84 | 1023.2 |
| 20260509075008 | 11 | 219 | 1.6 | 3.2 | 0.00 | 0.00 | 0.00 | 84 | 1023.2 |
| 20260509074508 | 11 | 190 | 0.0 | 3.2 | 0.00 | 0.00 | 0.00 | 84 | 1023.1 |
| 20260509074003 | 11 | 190 | 1.6 | 3.2 | 0.00 | 0.00 | 0.00 | 84 | 1023.1 |
| 20260509073503 | 11 | 192 | 0.0 | 3.2 | 0.00 | 0.00 | 0.00 | 84 | 1023.2 |
| 20260509073020 | 11 | 192 | 0.0 | 3.2 | 0.00 | 0.00 | 0.00 | 84 | 1023.1 |
| 20260509072507 | 11 | 192 | 0.0 | 3.2 | 0.00 | 0.00 | 0.00 | 84 | 1023.2 |
| 20260509072007 | 11 | 192 | 0.0 | 3.2 | 0.00 | 0.00 | 0.00 | 84 | 1023.1 |
| 20260509071518 | 11 | 174 | 0.0 | 4.8 | 0.00 | 0.00 | 0.00 | 84 | 1023.1 |
| 20260509071006 | 11 | 231 | 0.0 | 4.8 | 0.00 | 0.00 | 0.00 | 84 | 1023.0 |
| 20260509070506 | 11 | 228 | 0.0 | 4.8 | 0.00 | 0.00 | 0.00 | 85 | 1023.1 |
| 20260509070020 | 10 | 211 | 0.0 | 0.0 | 0.00 | 0.00 | 0.00 | 85 | 1023.1 |
| 20260509065500 | 10 | 211 | 0.0 | 0.0 | 0.00 | 0.00 | 0.00 | 85 | 1023.0 |
| 20260509065004 | 10 | 211 | 0.0 | 0.0 | 0.00 | 0.00 | 0.00 | 84 | 1023.0 |
| 20260509064504 | 10 | 211 | 0.0 | 0.0 | 0.00 | 0.00 | 0.00 | 85 | 1023.0 |
| 20260509064004 | 10 | 211 | 0.0 | 0.0 | 0.00 | 0.00 | 0.00 | 84 | 1023.0 |
| 20260509063505 | 10 | 211 | 0.0 | 0.0 | 0.00 | 0.00 | 0.00 | 85 | 1022.9 |
| 20260509063018 | 10 | 211 | 0.0 | 0.0 | 0.00 | 0.00 | 0.00 | 85 | 1022.9 |
| 20260509062504 | 10 | 211 | 0.0 | 0.0 | 0.00 | 0.00 | 0.00 | 84 | 1022.9 |
| 20260509062007 | 10 | 211 | 0.0 | 0.0 | 0.00 | 0.00 | 0.00 | 84 | 1022.9 |
| 20260509061517 | 10 | 211 | 0.0 | 0.0 | 0.00 | 0.00 | 0.00 | 83 | 1022.9 |
| 20260509061006 | 10 | 211 | 0.0 | 0.0 | 0.00 | 0.00 | 0.00 | 84 | 1022.9 |
| 20260509060506 | 10 | 211 | 0.0 | 0.0 | 0.00 | 0.00 | 0.00 | 84 | 1022.8 |
| 20260509060017 | 10 | 211 | 0.0 | 0.0 | 0.00 | 0.00 | 0.00 | 83 | 1022.8 |
| 20260509055509 | 10 | 211 | 0.0 | 0.0 | 0.00 | 0.00 | 0.00 | 82 | 1022.8 |
| 20260509055007 | 10 | 211 | 0.0 | 0.0 | 0.00 | 0.00 | 0.00 | 83 | 1022.9 |
| 20260509054522 | 10 | 211 | 0.0 | 0.0 | 0.00 | 0.00 | 0.00 | 83 | 1022.8 |
| 20260509054009 | 10 | 211 | 0.0 | 0.0 | 0.00 | 0.00 | 0.00 | 82 | 1022.8 |
| 20260509053504 | 10 | 211 | 0.0 | 0.0 | 0.00 | 0.00 | 0.00 | 81 | 1022.9 |
| 20260509053004 | 11 | 211 | 0.0 | 0.0 | 0.00 | 0.00 | 0.00 | 81 | 1022.8 |
| 20260509052504 | 11 | 211 | 0.0 | 0.0 | 0.00 | 0.00 | 0.00 | 81 | 1022.8 |
| 20260509052004 | 11 | 211 | 0.0 | 0.0 | 0.00 | 0.00 | 0.00 | 80 | 1022.8 |
| 20260509051512 | 11 | 211 | 0.0 | 0.0 | 0.00 | 0.00 | 0.00 | 80 | 1022.8 |
| 20260509051004 | 11 | 211 | 0.0 | 0.0 | 0.00 | 0.00 | 0.00 | 79 | 1022.8 |
| 20260509050508 | 11 | 213 | 0.0 | 3.2 | 0.00 | 0.00 | 0.00 | 79 | 1022.8 |
| 20260509050020 | 11 | 213 | 0.0 | 3.2 | 0.00 | 0.00 | 0.00 | 78 | 1022.8 |
| 20260509045515 | 11 | 154 | 0.0 | 3.2 | 0.00 | 0.00 | 0.00 | 78 | 1022.8 |
| 20260509045006 | 11 | 189 | 0.0 | 0.0 | 0.00 | 0.00 | 0.00 | 79 | 1022.8 |
| 20260509044522 | 11 | 199 | 0.0 | 0.0 | 0.00 | 0.00 | 0.00 | 78 | 1022.7 |
| 20260509044011 | 11 | 199 | 0.0 | 0.0 | 0.00 | 0.00 | 0.00 | 78 | 1022.7 |
| 20260509043508 | 11 | 199 | 0.0 | 0.0 | 0.00 | 0.00 | 0.00 | 77 | 1022.7 |
| 20260509043024 | 11 | 199 | 0.0 | 0.0 | 0.00 | 0.00 | 0.00 | 77 | 1022.7 |
| 20260509042508 | 11 | 199 | 0.0 | 0.0 | 0.00 | 0.00 | 0.00 | 77 | 1022.8 |
| 20260509042003 | 11 | 199 | 0.0 | 0.0 | 0.00 | 0.00 | 0.00 | 76 | 1022.7 |
| 20260509041506 | 11 | 199 | 0.0 | 0.0 | 0.00 | 0.00 | 0.00 | 76 | 1022.7 |
| 20260509041004 | 11 | 199 | 0.0 | 0.0 | 0.00 | 0.00 | 0.00 | 76 | 1022.7 |
| 20260509040507 | 12 | 199 | 0.0 | 0.0 | 0.00 | 0.00 | 0.00 | 75 | 1022.6 |
| 20260509040025 | 12 | 188 | 0.0 | 0.0 | 0.00 | 0.00 | 0.00 | 75 | 1022.5 |
| 20260509035507 | 12 | 268 | 0.0 | 0.0 | 0.00 | 0.00 | 0.00 | 75 | 1022.4 |
| 20260509035008 | 12 | 268 | 0.0 | 0.0 | 0.00 | 0.00 | 0.00 | 75 | 1022.3 |
| 20260509034518 | 12 | 268 | 0.0 | 0.0 | 0.00 | 0.00 | 0.00 | 74 | 1022.2 |
| 20260509034008 | 12 | 268 | 0.0 | 0.0 | 0.00 | 0.00 | 0.00 | 74 | 1022.1 |
| 20260509033506 | 12 | 275 | 0.0 | 0.0 | 0.00 | 0.00 | 0.00 | 74 | 1022.2 |
| 20260509033018 | 12 | 275 | 0.0 | 0.0 | 0.00 | 0.00 | 0.00 | 73 | 1022.2 |
| 20260509032511 | 12 | 275 | 0.0 | 0.0 | 0.00 | 0.00 | 0.00 | 72 | 1022.2 |
| 20260509032012 | 13 | 275 | 0.0 | 0.0 | 0.00 | 0.00 | 0.00 | 71 | 1021.9 |
| 20260509031547 | 13 | 246 | 0.0 | 0.0 | 0.00 | 0.00 | 0.00 | 71 | 1021.8 |
| 20260509031012 | 13 | 246 | 0.0 | 0.0 | 0.00 | 0.00 | 0.00 | 70 | 1021.8 |
| 20260509030506 | 13 | 265 | 0.0 | 0.0 | 0.00 | 0.00 | 0.00 | 69 | 1021.8 |
| 20260509030012 | 13 | 188 | 0.0 | 1.6 | 0.00 | 0.00 | 0.00 | 69 | 1021.8 |
| 20260509025503 | 13 | 188 | 0.0 | 4.8 | 0.00 | 0.00 | 0.00 | 68 | 1021.7 |
| 20260509025007 | 13 | 208 | 0.0 | 4.8 | 0.00 | 0.00 | 0.00 | 67 | 1021.7 |
| 20260509024514 | 13 | 218 | 0.0 | 3.2 | 0.00 | 0.00 | 0.00 | 66 | 1021.7 |
| 20260509024008 | 14 | 208 | 0.0 | 3.2 | 0.00 | 0.00 | 0.00 | 66 | 1021.7 |
| 20260509023509 | 14 | 175 | 0.0 | 3.2 | 0.00 | 0.00 | 0.00 | 66 | 1021.8 |
| 20260509023024 | 14 | 175 | 0.0 | 6.4 | 0.00 | 0.00 | 0.00 | 66 | 1021.7 |
| 20260509022507 | 14 | 189 | 1.6 | 6.4 | 0.00 | 0.00 | 0.00 | 66 | 1021.7 |
| 20260509022006 | 14 | 204 | 1.6 | 4.8 | 0.00 | 0.00 | 0.00 | 65 | 1021.7 |
| 20260509021534 | 14 | 195 | 1.6 | 11.3 | 0.00 | 0.00 | 0.00 | 65 | 1021.7 |
| 20260509021010 | 14 | 218 | 1.6 | 11.3 | 0.00 | 0.00 | 0.00 | 65 | 1021.7 |
| 20260509020508 | 14 | 219 | 3.2 | 11.3 | 0.00 | 0.00 | 0.00 | 64 | 1021.7 |
| 20260509020024 | 14 | 213 | 1.6 | 11.3 | 0.00 | 0.00 | 0.00 | 63 | 1021.7 |
| 20260509015509 | 14 | 229 | 3.2 | 11.3 | 0.00 | 0.00 | 0.00 | 63 | 1021.8 |
| 20260509015010 | 15 | 205 | 3.2 | 9.7 | 0.00 | 0.00 | 0.00 | 62 | 1021.8 |
| 20260509014511 | 15 | 206 | 1.6 | 3.2 | 0.00 | 0.00 | 0.00 | 62 | 1021.8 |
| 20260509014010 | 15 | 235 | 1.6 | 3.2 | 0.00 | 0.00 | 0.00 | 61 | 1021.6 |
| 20260509013507 | 15 | 227 | 0.0 | 3.2 | 0.00 | 0.00 | 0.00 | 62 | 1021.5 |
| 20260509013016 | 15 | 216 | 0.0 | 6.4 | 0.00 | 0.00 | 0.00 | 61 | 1021.5 |
| 20260509012510 | 15 | 216 | 1.6 | 9.7 | 0.00 | 0.00 | 0.00 | 61 | 1021.7 |
| 20260509012010 | 15 | 225 | 0.0 | 9.7 | 0.00 | 0.00 | 0.00 | 61 | 1021.6 |
| 20260509011523 | 15 | 156 | 0.0 | 9.7 | 0.00 | 0.00 | 0.00 | 61 | 1021.6 |
| 20260509011006 | 15 | 234 | 1.6 | 8.0 | 0.00 | 0.00 | 0.00 | 60 | 1021.6 |
| 20260509010509 | 15 | 142 | 0.0 | 3.2 | 0.00 | 0.00 | 0.00 | 61 | 1021.7 |
| 20260509010022 | 15 | 310 | 0.0 | 3.2 | 0.00 | 0.00 | 0.00 | 59 | 1021.7 |
| 20260509005511 | 15 | 223 | 1.6 | 6.4 | 0.00 | 0.00 | 0.00 | 60 | 1021.7 |
| 20260509005011 | 15 | 212 | 1.6 | 6.4 | 0.00 | 0.00 | 0.00 | 59 | 1021.8 |
| 20260509004536 | 15 | 213 | 1.6 | 6.4 | 0.00 | 0.00 | 0.00 | 60 | 1021.7 |
| 20260509004016 | 15 | 211 | 0.0 | 6.4 | 0.00 | 0.00 | 0.00 | 59 | 1021.7 |
| 20260509003506 | 15 | 209 | 1.6 | 11.3 | 0.00 | 0.00 | 0.00 | 59 | 1021.7 |
| 20260509003014 | 15 | 205 | 3.2 | 11.3 | 0.00 | 0.00 | 0.00 | 58 | 1021.8 |
| 20260509002507 | 15 | 203 | 1.6 | 6.4 | 0.00 | 0.00 | 0.00 | 58 | 1021.8 |
| 20260509002010 | 15 | 209 | 1.6 | 6.4 | 0.00 | 0.00 | 0.00 | 59 | 1021.8 |
| 20260509001505 | 15 | 208 | 1.6 | 12.9 | 0.00 | 0.00 | 0.00 | 59 | 1021.8 |
| 20260509001004 | 15 | 227 | 4.8 | 12.9 | 0.00 | 0.00 | 0.00 | 59 | 1021.8 |
| 20260509000503 | 15 | 192 | 3.2 | 9.7 | 0.00 | 0.00 | 0.00 | 58 | 1021.8 |
| 20260509000004 | 15 | 213 | 1.6 | 8.0 | 0.00 | 0.00 | 0.00 | 59 | 1021.7 |
| 20260508235505 | 15 | 254 | 1.6 | 3.2 | 0.00 | 0.00 | 0.00 | 58 | 1021.7 |
| 20260508235006 | 15 | 238 | 1.6 | 4.8 | 0.00 | 0.00 | 0.00 | 57 | 1021.7 |
| 20260508234512 | 15 | 281 | 0.0 | 11.3 | 0.00 | 0.00 | 0.00 | 58 | 1021.7 |
| 20260508234003 | 16 | 205 | 1.6 | 11.3 | 0.00 | 0.00 | 0.00 | 54 | 1021.7 |
| 20260508233508 | 16 | 261 | 3.2 | 11.3 | 0.00 | 0.00 | 0.00 | 55 | 1021.6 |
| 20260508233012 | 16 | 294 | 1.6 | 9.7 | 0.00 | 0.00 | 0.00 | 55 | 1021.7 |
| 20260508232505 | 16 | 242 | 3.2 | 9.7 | 0.00 | 0.00 | 0.00 | 54 | 1021.6 |
| 20260508232009 | 16 | 227 | 1.6 | 6.4 | 0.00 | 0.00 | 0.00 | 54 | 1021.6 |
| 20260508231515 | 16 | 298 | 3.2 | 12.9 | 0.00 | 0.00 | 0.00 | 54 | 1021.7 |
| 20260508231008 | 16 | 161 | 1.6 | 12.9 | 0.00 | 0.00 | 0.00 | 55 | 1021.7 |
| 20260508230508 | 16 | 140 | 3.2 | 11.3 | 0.00 | 0.00 | 0.00 | 56 | 1021.8 |
| 20260508230004 | 16 | 207 | 3.2 | 12.9 | 0.00 | 0.00 | 0.00 | 53 | 1021.8 |
| 20260508225504 | 16 | 196 | 3.2 | 12.9 | 0.00 | 0.00 | 0.00 | 54 | 1021.7 |
| 20260508225004 | 16 | 153 | 1.6 | 14.5 | 0.00 | 0.00 | 0.00 | 54 | 1021.7 |
| 20260508224508 | 16 | 173 | 6.4 | 14.5 | 0.00 | 0.00 | 0.00 | 53 | 1021.7 |
| 20260508224003 | 16 | 213 | 1.6 | 11.3 | 0.00 | 0.00 | 0.00 | 53 | 1021.8 |
| 20260508223503 | 16 | 248 | 1.6 | 11.3 | 0.00 | 0.00 | 0.00 | 54 | 1021.9 |
| 20260508223018 | 16 | 287 | 0.0 | 14.5 | 0.00 | 0.00 | 0.00 | 54 | 1021.9 |
| 20260508222503 | 16 | 147 | 3.2 | 16.1 | 0.00 | 0.00 | 0.00 | 53 | 1021.8 |
| 20260508222012 | 16 | 267 | 6.4 | 16.1 | 0.00 | 0.00 | 0.00 | 53 | 1021.8 |
| 20260508221516 | 16 | 205 | 4.8 | 22.5 | 0.00 | 0.00 | 0.00 | 56 | 1021.8 |
| 20260508221008 | 16 | 205 | 9.7 | 20.9 | 0.00 | 0.00 | 0.00 | 55 | 1021.8 |
| 20260508220507 | 16 | 232 | 1.6 | 6.4 | 0.00 | 0.00 | 0.00 | 54 | 1021.8 |
| 20260508220019 | 16 | 196 | 3.2 | 11.3 | 0.00 | 0.00 | 0.00 | 56 | 1021.8 |
| 20260508215516 | 16 | 226 | 3.2 | 11.3 | 0.00 | 0.00 | 0.00 | 54 | 1021.8 |
| 20260508215009 | 16 | 153 | 4.8 | 14.5 | 0.00 | 0.00 | 0.00 | 54 | 1021.9 |
| 20260508214506 | 16 | 239 | 3.2 | 14.5 | 0.00 | 0.00 | 0.00 | 53 | 1021.8 |
| 20260508214003 | 16 | 240 | 3.2 | 14.5 | 0.00 | 0.00 | 0.00 | 53 | 1021.8 |
| 20260508213504 | 16 | 201 | 1.6 | 16.1 | 0.00 | 0.00 | 0.00 | 53 | 1021.9 |
| 20260508213018 | 16 | 9 | 3.2 | 16.1 | 0.00 | 0.00 | 0.00 | 56 | 1021.9 |
| 20260508212502 | 15 | 219 | 4.8 | 14.5 | 0.00 | 0.00 | 0.00 | 57 | 1021.8 |
| 20260508212007 | 16 | 175 | 3.2 | 14.5 | 0.00 | 0.00 | 0.00 | 54 | 1021.9 |
| 20260508211513 | 15 | 225 | 3.2 | 14.5 | 0.00 | 0.00 | 0.00 | 58 | 1021.9 |
| 20260508211008 | 15 | 191 | 6.4 | 12.9 | 0.00 | 0.00 | 0.00 | 56 | 1021.9 |
| 20260508210507 | 15 | 239 | 4.8 | 16.1 | 0.00 | 0.00 | 0.00 | 58 | 1021.9 |
| 20260508210027 | 15 | 200 | 3.2 | 16.1 | 0.00 | 0.00 | 0.00 | 60 | 1021.8 |
| 20260508205512 | 15 | 200 | 1.6 | 11.3 | 0.00 | 0.00 | 0.00 | 57 | 1021.8 |
| 20260508205009 | 16 | 228 | 4.8 | 16.1 | 0.00 | 0.00 | 0.00 | 57 | 1021.7 |
| 20260508204528 | 15 | 183 | 3.2 | 17.7 | 0.00 | 0.00 | 0.00 | 59 | 1021.6 |
| 20260508204010 | 15 | 167 | 4.8 | 17.7 | 0.00 | 0.00 | 0.00 | 60 | 1021.6 |